Time;durP1;ratioP1;P1;durP2;ratioP2;P2;SDS_P1;SDS_P2;PMS_P1;PMS_P2;Temp;Humidity;BMP_temperature;BMP_pressure;BME280_temperature;BME280_humidity;BME280_pressure;Samples;Min_cycle;Max_cycle;Signal;HPM_P1;HPM_P2
2023/03/30 00:00:17;;;;;;;5.30;2.43;;;;;;;6.14;53.42;95171.25;6299256;22;20200;-78
2023/03/30 00:02:47;;;;;;;7.67;3.30;;;;;;;6.17;53.70;95170.91;6298776;22;20161;-78
2023/03/30 00:05:16;;;;;;;4.67;2.77;;;;;;;6.18;53.25;95167.31;6298330;22;20168;-79
2023/03/30 00:07:43;;;;;;;3.27;2.57;;;;;;;6.13;52.84;95160.13;6298476;22;20179;-78
2023/03/30 00:10:13;;;;;;;3.77;2.70;;;;;;;6.18;53.31;95159.59;6301713;22;20167;-78
2023/03/30 00:12:42;;;;;;;4.87;3.00;;;;;;;6.21;52.49;95151.50;6301181;22;20178;-80
2023/03/30 00:15:11;;;;;;;4.63;2.83;;;;;;;6.15;52.81;95150.41;6300958;22;20164;-80
2023/03/30 00:17:38;;;;;;;3.77;2.70;;;;;;;6.11;53.28;95154.34;6301190;22;20769;-80
2023/03/30 00:20:10;;;;;;;8.57;2.77;;;;;;;6.12;52.96;95161.09;6301091;22;20634;-80
2023/03/30 00:22:37;;;;;;;4.27;2.90;;;;;;;6.07;53.70;95166.00;6302030;22;20592;-81
2023/03/30 00:25:05;;;;;;;4.20;2.93;;;;;;;6.14;53.85;95153.19;6300923;22;20638;-81
2023/03/30 00:27:32;;;;;;;5.07;2.80;;;;;;;5.99;54.21;95154.97;6301355;22;20519;-80
2023/03/30 00:29:59;;;;;;;4.20;2.73;;;;;;;6.08;54.55;95159.06;6301783;22;20172;-81
2023/03/30 00:32:26;;;;;;;4.37;2.63;;;;;;;6.13;54.69;95160.13;6301615;22;20179;-80
2023/03/30 00:34:53;;;;;;;5.73;3.27;;;;;;;6.11;55.32;95169.03;6300000;22;20175;-80
2023/03/30 00:37:21;;;;;;;3.80;2.70;;;;;;;6.13;55.38;95172.22;6297260;22;20624;-79
2023/03/30 00:39:47;;;;;;;4.33;3.13;;;;;;;5.97;57.46;95156.94;6300815;22;20183;-78
2023/03/30 00:42:16;;;;;;;3.90;3.03;;;;;;;5.90;58.34;95156.81;6300917;22;20171;-77
2023/03/30 00:45:08;;;;;;;4.47;3.10;;;;;;;5.87;59.79;95159.75;6302406;22;20198;-78
2023/03/30 00:47:38;;;;;;;6.83;3.40;;;;;;;5.74;61.49;95155.16;6253907;22;20170;-78
2023/03/30 00:50:07;;;;;;;4.67;3.33;;;;;;;5.71;62.82;95155.50;6300267;22;20166;-78
2023/03/30 00:52:36;;;;;;;4.80;3.40;;;;;;;5.66;62.62;95162.16;6299975;22;20198;-77
2023/03/30 00:55:06;;;;;;;5.23;3.27;;;;;;;5.60;63.12;95155.94;6300758;22;20203;-77
2023/03/30 00:57:37;;;;;;;7.30;3.40;;;;;;;5.60;62.98;95158.53;6302246;22;20195;-78
2023/03/30 01:00:07;;;;;;;5.13;2.93;;;;;;;5.58;62.90;95160.47;6300253;22;20164;-79
2023/03/30 01:02:38;;;;;;;4.27;2.77;;;;;;;5.56;62.66;95152.13;6299082;22;20550;-78
2023/03/30 01:05:06;;;;;;;4.60;3.00;;;;;;;5.57;63.43;95155.50;6299907;22;20195;-79
2023/03/30 01:07:33;;;;;;;6.87;4.07;;;;;;;5.55;63.00;95163.41;6300151;22;20171;-79
2023/03/30 01:10:02;;;;;;;4.43;3.37;;;;;;;5.56;62.82;95156.47;6301828;22;20167;-79
2023/03/30 01:12:29;;;;;;;6.07;3.40;;;;;;;5.62;62.81;95158.34;6299885;22;20168;-79
2023/03/30 01:14:56;;;;;;;4.93;3.00;;;;;;;5.62;63.86;95153.19;6300910;22;20167;-80
2023/03/30 01:17:31;;;;;;;5.77;2.97;;;;;;;5.51;64.78;95145.91;6298891;22;20202;-79
2023/03/30 01:20:41;;;;;;;5.17;3.20;;;;;;;5.47;64.43;95153.16;6300402;22;20162;-80
2023/03/30 01:23:34;;;;;;;8.33;3.17;;;;;;;5.42;65.50;95149.50;6300664;22;20363;-80
2023/03/30 01:26:37;;;;;;;5.53;3.10;;;;;;;5.45;66.53;95149.97;6302276;22;20170;-80
2023/03/30 01:29:15;;;;;;;4.73;2.90;;;;;;;5.45;67.58;95149.97;6301357;22;20198;-80
2023/03/30 01:32:05;;;;;;;5.13;2.80;;;;;;;5.36;67.82;95157.94;6300911;22;20166;-79
2023/03/30 01:34:50;;;;;;;6.00;3.20;;;;;;;5.24;68.72;95147.25;6294719;22;20646;-79
2023/03/30 01:37:52;;;;;;;6.60;3.50;;;;;;;5.18;69.28;95162.56;6299848;22;20260;-79
2023/03/30 01:40:28;;;;;;;4.60;2.87;;;;;;;5.12;69.83;95167.44;6273861;22;20628;-79
2023/03/30 01:43:01;;;;;;;5.13;3.30;;;;;;;5.12;69.44;95159.72;6300611;22;20480;-79
2023/03/30 01:45:40;;;;;;;6.40;3.33;;;;;;;5.10;70.13;95163.44;6300595;22;20162;-80
2023/03/30 01:48:13;;;;;;;5.17;3.50;;;;;;;5.03;69.93;95157.38;6302306;22;20178;-79
2023/03/30 01:50:42;;;;;;;5.40;3.83;;;;;;;4.97;70.18;95150.31;6300360;22;20155;-79
2023/03/30 01:53:15;;;;;;;5.10;3.33;;;;;;;5.04;69.12;95161.56;6299763;22;20249;-79
2023/03/30 01:55:48;;;;;;;5.67;3.63;;;;;;;5.11;67.51;95152.94;6300138;22;20197;-79
2023/03/30 01:58:21;;;;;;;5.33;3.63;;;;;;;5.22;66.81;95164.66;6300053;22;20243;-78
2023/03/30 02:00:51;;;;;;;5.93;3.33;;;;;;;5.26;66.15;95163.31;6301209;22;20483;-79
2023/03/30 02:03:22;;;;;;;5.43;3.30;;;;;;;5.25;65.74;95172.03;6297389;22;20185;-79
2023/03/30 02:05:53;;;;;;;4.03;3.20;;;;;;;5.30;64.71;95166.34;6298865;22;20663;-78
2023/03/30 02:08:24;;;;;;;8.53;3.30;;;;;;;5.28;65.06;95163.94;6299794;22;20566;-78
2023/03/30 02:10:55;;;;;;;6.63;3.90;;;;;;;5.29;65.40;95160.41;6299557;22;20185;-79
2023/03/30 02:13:25;;;;;;;4.27;3.40;;;;;;;5.33;66.63;95169.38;6300752;22;20175;-80
2023/03/30 02:15:57;;;;;;;5.60;3.37;;;;;;;5.28;66.89;95158.00;6299576;22;21073;-80
2023/03/30 02:18:24;;;;;;;5.50;3.70;;;;;;;5.27;67.03;95161.53;6299883;22;20166;-79
2023/03/30 02:20:51;;;;;;;7.00;4.20;;;;;;;5.28;67.40;95169.09;6300525;22;20260;-79
2023/03/30 02:23:21;;;;;;;7.17;4.27;;;;;;;5.31;67.84;95163.59;6300547;22;20169;-78
2023/03/30 02:25:48;;;;;;;7.37;4.13;;;;;;;5.33;68.28;95156.50;6300968;22;20492;-80
2023/03/30 02:28:17;;;;;;;6.77;4.10;;;;;;;5.31;69.40;95166.16;6299252;22;20210;-79
2023/03/30 02:30:46;;;;;;;5.17;3.80;;;;;;;5.24;70.37;95160.13;6299159;22;20167;-80
2023/03/30 02:33:21;;;;;;;7.23;4.47;;;;;;;5.25;71.52;95168.66;6298952;22;20645;-81
2023/03/30 02:36:13;;;;;;;7.33;4.20;;;;;;;5.21;71.84;95163.03;6300320;22;20158;-80
2023/03/30 02:39:14;;;;;;;5.33;4.13;;;;;;;5.23;72.31;95166.22;6301449;22;20157;-79
2023/03/30 02:42:00;;;;;;;5.50;3.60;;;;;;;5.10;73.53;95161.69;6300994;22;20157;-80
2023/03/30 02:44:35;;;;;;;5.30;3.60;;;;;;;4.97;75.04;95171.72;6299377;22;20186;-80
2023/03/30 02:47:06;;;;;;;5.63;3.40;;;;;;;5.02;75.87;95169.44;6298455;22;20174;-80
2023/03/30 02:49:50;;;;;;;5.40;3.63;;;;;;;4.99;76.56;95164.63;6298264;22;20271;-79
2023/03/30 02:52:32;;;;;;;9.50;4.57;;;;;;;4.95;76.81;95171.09;6299480;22;20470;-78
2023/03/30 02:55:06;;;;;;;6.67;4.10;;;;;;;4.80;77.56;95174.56;6299816;22;20159;-81
2023/03/30 02:57:41;;;;;;;6.03;4.10;;;;;;;4.69;79.34;95162.88;6300389;22;20186;-80
2023/03/30 03:00:16;;;;;;;8.17;4.10;;;;;;;4.69;79.41;95174.94;6298427;22;20157;-80
2023/03/30 03:02:49;;;;;;;7.07;4.30;;;;;;;4.61;81.01;95180.13;6299651;22;20205;-81
2023/03/30 03:05:16;;;;;;;5.67;3.77;;;;;;;4.67;80.79;95172.56;6300211;22;20161;-81
2023/03/30 03:07:46;;;;;;;8.83;4.73;;;;;;;4.77;80.32;95177.47;6300503;22;20165;-81
2023/03/30 03:10:14;;;;;;;7.83;4.93;;;;;;;4.81;80.35;95182.13;6300562;22;20174;-80
2023/03/30 03:12:42;;;;;;;7.57;4.90;;;;;;;4.90;80.52;95182.88;6298638;22;20704;-79
2023/03/30 03:15:11;;;;;;;11.40;5.40;;;;;;;4.89;80.78;95187.22;6298256;22;20170;-79
2023/03/30 03:17:38;;;;;;;9.17;5.87;;;;;;;4.89;80.82;95189.81;6297892;22;20541;-79
2023/03/30 03:20:06;;;;;;;8.07;5.43;;;;;;;4.88;81.01;95183.03;6300121;22;20683;-79
2023/03/30 03:22:33;;;;;;;7.40;5.17;;;;;;;4.87;81.89;95189.19;6298990;22;20236;-79
2023/03/30 03:25:01;;;;;;;8.77;5.43;;;;;;;4.72;82.62;95187.47;6298404;22;20170;-79
2023/03/30 03:27:28;;;;;;;8.03;5.37;;;;;;;4.79;83.61;95178.13;6295782;22;20253;-79
2023/03/30 03:29:55;;;;;;;8.20;4.83;;;;;;;4.79;83.11;95181.47;6296831;22;20171;-80
2023/03/30 03:32:23;;;;;;;7.37;4.47;;;;;;;4.61;84.58;95185.28;6298864;22;20170;-79
2023/03/30 03:34:50;;;;;;;6.67;4.43;;;;;;;4.55;85.10;95184.19;6297653;22;20169;-79
2023/03/30 03:37:17;;;;;;;6.30;4.40;;;;;;;4.46;86.93;95175.72;6297851;22;20198;-79
2023/03/30 03:39:43;;;;;;;8.37;4.60;;;;;;;4.46;87.33;95178.28;6297959;22;20652;-79
2023/03/30 03:42:10;;;;;;;7.50;5.23;;;;;;;4.51;87.13;95183.72;6300645;22;20499;-80
2023/03/30 03:44:39;;;;;;;7.50;4.70;;;;;;;4.43;87.19;95178.63;6298399;22;20172;-79
2023/03/30 03:47:06;;;;;;;6.70;5.03;;;;;;;4.42;88.33;95178.75;6298109;22;20178;-79
2023/03/30 03:49:34;;;;;;;9.07;4.87;;;;;;;4.37;88.32;95191.34;6298384;22;20205;-79
2023/03/30 03:52:01;;;;;;;9.27;4.43;;;;;;;4.42;88.96;95200.16;6299135;22;20171;-79
2023/03/30 03:54:28;;;;;;;8.37;5.30;;;;;;;4.48;88.58;95188.38;6299652;22;20251;-79
2023/03/30 03:56:55;;;;;;;5.73;4.80;;;;;;;4.66;87.59;95206.97;6299374;22;20198;-79
2023/03/30 03:59:21;;;;;;;7.03;4.23;;;;;;;4.62;88.46;95210.84;6297769;22;20177;-79
2023/03/30 04:01:48;;;;;;;10.20;4.57;;;;;;;4.53;89.30;95210.06;6298757;22;20168;-80
2023/03/30 04:04:15;;;;;;;5.20;3.83;;;;;;;4.41;90.30;95205.47;6299558;22;20226;-79
2023/03/30 04:06:43;;;;;;;7.23;4.97;;;;;;;4.35;90.75;95212.09;6298423;22;20211;-79
2023/03/30 04:09:10;;;;;;;9.10;5.30;;;;;;;4.44;90.45;95208.50;6297924;22;20176;-80
2023/03/30 04:11:37;;;;;;;8.23;5.60;;;;;;;4.52;90.29;95190.47;6299285;22;20255;-82
2023/03/30 04:14:04;;;;;;;7.23;4.80;;;;;;;4.48;90.77;95198.69;6301763;22;20172;-87
2023/03/30 04:16:31;;;;;;;8.37;5.07;;;;;;;4.39;91.11;95195.34;6299667;22;20285;-80
2023/03/30 04:18:58;;;;;;;7.13;4.97;;;;;;;4.38;91.85;95192.94;6297522;22;20245;-81
2023/03/30 04:21:28;;;;;;;8.77;5.30;;;;;;;4.35;91.84;95201.81;6298090;22;20169;-80
2023/03/30 04:23:56;;;;;;;7.47;5.30;;;;;;;4.30;92.63;95201.47;6298234;22;20255;-80
2023/03/30 04:26:23;;;;;;;9.83;6.30;;;;;;;4.28;92.79;95195.69;6299996;22;20168;-80
2023/03/30 04:28:52;;;;;;;13.07;6.00;;;;;;;4.21;92.76;95184.50;6297175;22;20173;-80
2023/03/30 04:31:21;;;;;;;11.70;6.20;;;;;;;4.27;92.76;95196.66;6297948;22;20165;-81
2023/03/30 04:33:52;;;;;;;8.70;6.07;;;;;;;4.20;93.60;95194.94;6297746;22;20170;-80
2023/03/30 04:36:19;;;;;;;12.67;6.47;;;;;;;4.27;92.66;95201.81;6299423;22;20166;-81
2023/03/30 04:38:57;;;;;;;9.43;6.60;;;;;;;4.34;92.36;95191.66;6298773;22;20624;-80
2023/03/30 04:41:32;;;;;;;13.07;7.40;;;;;;;4.30;91.58;95188.63;6298164;22;20247;-80
2023/03/30 04:43:59;;;;;;;12.60;6.83;;;;;;;4.31;91.57;95213.38;6297517;22;20158;-80
2023/03/30 04:46:26;;;;;;;8.97;5.83;;;;;;;4.24;92.24;95203.94;6298361;22;20165;-80
2023/03/30 04:48:53;;;;;;;9.43;6.40;;;;;;;4.29;92.16;95204.22;6299270;22;20188;-82
2023/03/30 04:51:20;;;;;;;14.70;5.80;;;;;;;4.45;91.05;95199.00;6299212;22;20169;-80
2023/03/30 04:53:47;;;;;;;22.23;6.37;;;;;;;4.39;90.92;95205.63;6296168;22;20165;-80
2023/03/30 04:56:14;;;;;;;11.80;6.40;;;;;;;4.47;90.33;95197.88;6296454;22;20636;-80
2023/03/30 04:58:42;;;;;;;17.00;7.53;;;;;;;4.53;89.79;95189.50;6299399;22;20203;-81
2023/03/30 05:01:09;;;;;;;17.17;8.87;;;;;;;4.63;89.03;95212.47;6301414;22;20188;-80
2023/03/30 05:03:36;;;;;;;15.83;9.30;;;;;;;4.54;90.09;95206.53;6299468;22;20172;-80
2023/03/30 05:06:03;;;;;;;15.50;8.90;;;;;;;4.68;89.49;95214.53;6299203;22;20173;-81
2023/03/30 05:08:31;;;;;;;15.47;8.20;;;;;;;4.68;89.15;95214.53;6300048;22;20167;-81
2023/03/30 05:11:01;;;;;;;17.83;7.20;;;;;;;4.78;88.90;95217.69;6302183;22;20213;-79
2023/03/30 05:13:28;;;;;;;9.87;6.57;;;;;;;4.79;88.91;95216.75;6301424;22;20173;-80
2023/03/30 05:15:57;;;;;;;12.57;6.23;;;;;;;4.80;87.90;95220.91;6300769;22;20169;-82
2023/03/30 05:18:24;;;;;;;10.67;6.40;;;;;;;4.87;87.68;95224.41;6301297;22;20182;-82
2023/03/30 05:20:51;;;;;;;13.73;6.07;;;;;;;4.97;87.91;95215.50;6301380;22;20749;-81
2023/03/30 05:23:17;;;;;;;8.90;5.60;;;;;;;5.11;86.45;95217.34;6303061;22;20670;-81
2023/03/30 05:25:47;;;;;;;10.37;5.03;;;;;;;5.18;86.47;95225.22;6301088;22;20190;-80
2023/03/30 05:28:15;;;;;;;9.37;4.80;;;;;;;5.24;86.39;95216.00;6300607;22;20167;-81
2023/03/30 05:30:45;;;;;;;6.93;4.47;;;;;;;5.41;85.35;95215.72;6299799;22;20258;-81
2023/03/30 05:33:13;;;;;;;12.00;5.17;;;;;;;5.57;84.45;95219.97;6300782;22;20179;-82
2023/03/30 05:35:40;;;;;;;13.27;5.90;;;;;;;5.59;83.90;95205.91;6300283;22;20254;-81
2023/03/30 05:38:07;;;;;;;9.40;5.27;;;;;;;5.74;83.20;95216.28;6300024;22;20195;-81
2023/03/30 05:40:34;;;;;;;15.80;9.27;;;;;;;5.91;82.95;95227.28;6299510;22;20238;-81
2023/03/30 05:43:02;;;;;;;13.03;6.27;;;;;;;5.96;82.95;95225.75;6300718;22;20172;-81
2023/03/30 05:45:29;;;;;;;11.80;6.63;;;;;;;6.01;82.77;95231.19;6301667;22;20165;-81
2023/03/30 05:47:56;;;;;;;13.10;6.53;;;;;;;6.03;82.84;95229.22;6299792;22;20174;-80
2023/03/30 05:50:25;;;;;;;17.43;6.77;;;;;;;6.12;84.01;95223.03;6300305;22;20165;-81
2023/03/30 05:52:51;;;;;;;17.97;7.47;;;;;;;6.21;84.09;95226.31;6300581;22;20164;-82
2023/03/30 05:55:18;;;;;;;14.67;7.00;;;;;;;6.29;84.08;95224.47;6302570;22;20176;-82
2023/03/30 05:57:45;;;;;;;15.87;8.30;;;;;;;6.27;84.02;95226.41;6302110;22;20192;-82
2023/03/30 06:00:14;;;;;;;17.17;8.20;;;;;;;6.20;85.05;95227.31;6299433;22;20175;-82
2023/03/30 06:02:41;;;;;;;16.10;8.33;;;;;;;6.15;85.63;95232.19;6299763;22;20168;-82
2023/03/30 06:05:09;;;;;;;18.07;7.97;;;;;;;6.24;85.99;95228.53;6300986;22;20710;-83
2023/03/30 06:07:38;;;;;;;17.80;7.70;;;;;;;6.17;86.58;95240.56;6302011;22;20164;-82
2023/03/30 06:10:06;;;;;;;12.20;6.77;;;;;;;6.21;86.63;95249.53;6299905;22;20168;-82
2023/03/30 06:12:34;;;;;;;13.67;6.13;;;;;;;6.24;86.82;95254.34;6300700;22;20172;-80
2023/03/30 06:15:01;;;;;;;11.87;6.77;;;;;;;6.19;87.13;95243.75;6299972;22;20164;-81
2023/03/30 06:17:28;;;;;;;11.63;6.87;;;;;;;6.26;86.43;95255.00;6302577;22;20686;-81
2023/03/30 06:19:55;;;;;;;15.03;6.97;;;;;;;6.30;86.66;95253.66;6298510;22;20305;-80
2023/03/30 06:22:22;;;;;;;15.97;7.30;;;;;;;6.28;86.20;95250.47;6300616;22;20225;-81
2023/03/30 06:24:51;;;;;;;13.83;6.80;;;;;;;6.17;87.49;95261.22;6305670;22;20190;-82
2023/03/30 06:27:17;;;;;;;12.20;6.30;;;;;;;6.17;86.98;95264.59;6308704;22;20198;-81
2023/03/30 06:29:44;;;;;;;13.23;6.77;;;;;;;6.23;87.22;95261.28;6307952;22;20176;-82
2023/03/30 06:32:11;;;;;;;10.07;5.70;;;;;;;6.18;86.65;95253.28;6309585;22;20164;-80
2023/03/30 06:34:38;;;;;;;7.87;5.43;;;;;;;6.19;87.37;95264.41;6306103;22;20168;-81
2023/03/30 06:37:07;;;;;;;13.20;5.80;;;;;;;6.20;87.68;95264.22;6304579;22;20168;-85
2023/03/30 06:39:36;;;;;;;15.53;6.10;;;;;;;6.27;87.79;95267.72;6308392;22;20635;-83
2023/03/30 06:42:05;;;;;;;12.73;5.87;;;;;;;6.30;87.50;95263.97;6301324;22;20164;-81
2023/03/30 06:44:32;;;;;;;10.70;5.77;;;;;;;6.41;86.63;95260.94;6303436;22;20206;-81
2023/03/30 06:46:59;;;;;;;11.23;6.13;;;;;;;6.44;86.24;95273.50;6302960;22;20164;-81
2023/03/30 06:49:26;;;;;;;9.67;5.40;;;;;;;6.35;85.80;95263.47;6304681;22;20218;-81
2023/03/30 06:51:53;;;;;;;10.07;6.00;;;;;;;6.39;85.37;95275.81;6304699;22;20168;-81
2023/03/30 06:54:20;;;;;;;11.37;5.93;;;;;;;6.38;85.85;95284.53;6301190;22;20175;-81
2023/03/30 06:56:47;;;;;;;11.20;5.97;;;;;;;6.46;85.47;95279.31;6298890;22;20171;-81
2023/03/30 06:59:17;;;;;;;10.27;6.47;;;;;;;6.51;85.21;95274.41;6298880;22;20894;-82
2023/03/30 07:01:44;;;;;;;13.27;5.97;;;;;;;6.63;84.92;95262.69;6301452;22;20199;-81
2023/03/30 07:04:11;;;;;;;13.13;6.83;;;;;;;6.74;84.60;95264.81;6299932;22;20183;-81
2023/03/30 07:06:38;;;;;;;15.47;6.70;;;;;;;6.78;83.55;95262.66;6299217;22;20171;-80
2023/03/30 07:09:05;;;;;;;11.13;5.80;;;;;;;6.96;82.28;95280.34;6300038;22;20175;-81
2023/03/30 07:11:32;;;;;;;10.07;6.20;;;;;;;7.04;82.13;95275.13;6301465;22;20204;-81
2023/03/30 07:14:00;;;;;;;14.13;6.90;;;;;;;7.19;81.49;95278.44;6300153;22;20733;-80
2023/03/30 07:16:28;;;;;;;12.90;6.30;;;;;;;7.28;80.97;95273.00;6299931;22;20196;-81
2023/03/30 07:18:55;;;;;;;10.27;5.83;;;;;;;7.39;79.57;95280.28;6299406;22;20215;-82
2023/03/30 07:21:21;;;;;;;11.13;6.47;;;;;;;7.52;79.34;95281.41;6299105;22;20191;-81
2023/03/30 07:23:49;;;;;;;15.03;7.13;;;;;;;7.56;79.18;95287.81;6299336;22;20164;-82
2023/03/30 07:26:16;;;;;;;14.30;7.03;;;;;;;7.60;78.62;95291.63;6298852;22;20180;-80
2023/03/30 07:28:44;;;;;;;11.27;7.00;;;;;;;7.68;77.91;95279.38;6298428;22;20167;-80
2023/03/30 07:31:13;;;;;;;32.93;16.00;;;;;;;7.58;77.88;95281.47;6299393;22;20192;-80
2023/03/30 07:33:41;;;;;;;15.63;8.07;;;;;;;7.72;76.94;95288.38;6299570;22;20249;-82
2023/03/30 07:36:09;;;;;;;16.47;7.53;;;;;;;7.79;76.37;95278.88;6298715;22;20251;-81
2023/03/30 07:38:36;;;;;;;14.50;7.13;;;;;;;7.94;76.03;95284.81;6297427;22;20203;-81
2023/03/30 07:41:07;;;;;;;11.10;6.67;;;;;;;8.06;74.71;95284.28;6298742;22;20164;-79
2023/03/30 07:43:34;;;;;;;11.07;6.77;;;;;;;8.22;74.21;95282.25;6297480;22;20190;-81
2023/03/30 07:46:01;;;;;;;13.97;6.70;;;;;;;8.26;73.23;95274.91;6297967;22;20179;-83
2023/03/30 07:48:27;;;;;;;12.07;6.97;;;;;;;8.26;72.73;95282.66;6298867;22;20175;-83
2023/03/30 07:51:01;;;;;;;18.23;7.83;;;;;;;8.43;72.27;95276.25;6299561;22;20168;-82
2023/03/30 07:53:28;;;;;;;13.43;7.87;;;;;;;8.57;71.00;95279.75;6299768;22;20196;-82
2023/03/30 07:55:56;;;;;;;12.80;7.73;;;;;;;8.54;71.21;95267.97;6300010;22;20686;-81
2023/03/30 07:58:23;;;;;;;14.17;7.23;;;;;;;8.75;70.35;95290.41;6301326;22;20196;-80
2023/03/30 08:00:50;;;;;;;15.43;7.60;;;;;;;8.85;69.80;95289.06;6299701;22;20203;-82
2023/03/30 08:03:17;;;;;;;9.63;6.40;;;;;;;8.92;68.82;95291.69;6299606;22;20164;-82
2023/03/30 08:05:45;;;;;;;10.97;6.57;;;;;;;8.94;68.19;95272.38;6299177;22;20168;-83
2023/03/30 08:08:13;;;;;;;11.13;6.67;;;;;;;9.14;68.24;95277.66;6301200;22;20799;-82
2023/03/30 08:10:41;;;;;;;14.43;6.60;;;;;;;9.07;66.58;95277.63;6296290;22;20197;-81
2023/03/30 08:13:08;;;;;;;12.57;6.97;;;;;;;9.15;65.40;95273.25;6298235;22;20246;-80
2023/03/30 08:15:35;;;;;;;12.77;7.00;;;;;;;9.21;65.93;95273.28;6297840;22;20176;-82
2023/03/30 08:18:06;;;;;;;14.13;7.63;;;;;;;9.20;65.64;95269.09;6298403;22;20287;-89
2023/03/30 08:20:36;;;;;;;13.07;7.17;;;;;;;9.42;66.00;95269.75;6299793;22;20199;-85
2023/03/30 08:23:03;;;;;;;10.77;6.80;;;;;;;9.57;64.92;95270.41;6299703;22;20195;-81
2023/03/30 08:25:31;;;;;;;10.50;5.83;;;;;;;9.66;63.55;95275.22;6299160;22;20172;-79
2023/03/30 08:27:58;;;;;;;13.80;6.00;;;;;;;9.78;62.21;95269.44;6299560;22;20160;-84
2023/03/30 08:30:26;;;;;;;11.73;6.50;;;;;;;9.82;62.08;95265.44;6302304;22;20260;-82
2023/03/30 08:32:53;;;;;;;14.37;8.37;;;;;;;9.80;63.04;95276.03;6302324;22;20639;-82
2023/03/30 08:35:20;;;;;;;12.63;8.27;;;;;;;9.82;62.35;95275.81;6301375;22;20768;-82
2023/03/30 08:37:47;;;;;;;14.33;8.47;;;;;;;9.73;62.42;95277.00;6301174;22;20522;-81
2023/03/30 08:40:15;;;;;;;14.13;7.53;;;;;;;9.64;63.20;95271.19;6300440;22;20607;-82
2023/03/30 08:43:14;;;;;;;13.83;7.80;;;;;;;9.65;62.63;95271.00;6299783;22;20255;-81
2023/03/30 08:45:42;;;;;;;11.63;7.90;;;;;;;9.83;63.48;95274.84;6301372;22;20160;-82
2023/03/30 08:48:16;;;;;;;12.87;7.43;;;;;;;9.90;61.86;95273.84;6299930;22;20174;-81
2023/03/30 08:50:52;;;;;;;12.73;7.90;;;;;;;9.96;61.56;95267.06;6297516;22;20184;-82
2023/03/30 08:53:20;;;;;;;16.00;7.67;;;;;;;10.06;60.89;95270.06;6301250;22;20245;-83
2023/03/30 08:55:52;;;;;;;13.70;7.37;;;;;;;10.17;59.73;95265.09;6302467;22;20164;-82
2023/03/30 08:58:30;;;;;;;11.43;7.47;;;;;;;10.16;58.42;95267.88;6301768;22;20176;-80
2023/03/30 09:01:05;;;;;;;15.33;6.60;;;;;;;10.22;58.22;95259.31;6300426;22;20608;-84
2023/03/30 09:03:39;;;;;;;10.80;6.47;;;;;;;10.22;57.71;95267.91;6300138;22;20175;-80
2023/03/30 09:06:13;;;;;;;16.83;7.20;;;;;;;10.29;57.71;95265.31;6299152;22;20160;-80
2023/03/30 09:08:41;;;;;;;12.70;7.10;;;;;;;10.50;58.23;95259.09;6297761;22;20166;-80
2023/03/30 09:11:13;;;;;;;10.13;6.60;;;;;;;10.83;56.84;95258.03;6299353;22;20177;-80
2023/03/30 09:13:45;;;;;;;11.30;6.20;;;;;;;11.11;56.16;95257.72;6300336;22;20167;-81
2023/03/30 09:16:18;;;;;;;10.17;5.90;;;;;;;11.42;54.09;95256.19;6299447;22;20192;-80
2023/03/30 09:18:49;;;;;;;8.07;4.30;;;;;;;11.73;50.14;95249.25;6299597;22;20177;-81
2023/03/30 09:21:18;;;;;;;5.47;3.63;;;;;;;11.75;48.59;95251.63;6300859;22;20236;-81
2023/03/30 09:23:45;;;;;;;8.57;4.77;;;;;;;11.88;48.14;95251.56;6301236;22;20507;-81
2023/03/30 09:26:20;;;;;;;6.17;3.37;;;;;;;11.66;47.91;95250.28;6298357;22;20175;-79
2023/03/30 09:28:56;;;;;;;5.57;3.40;;;;;;;11.86;48.19;95248.38;6298266;22;20262;-79
2023/03/30 09:31:28;;;;;;;7.03;3.40;;;;;;;11.97;47.34;95244.28;6299279;22;20168;-79
2023/03/30 09:34:01;;;;;;;4.87;3.20;;;;;;;12.09;47.15;95237.38;6300451;22;20167;-79
2023/03/30 09:36:37;;;;;;;5.77;3.37;;;;;;;12.23;46.54;95228.44;6300642;22;20156;-79
2023/03/30 09:39:10;;;;;;;7.33;3.57;;;;;;;12.27;45.48;95227.78;6299609;22;20176;-79
2023/03/30 09:41:54;;;;;;;8.30;3.10;;;;;;;12.48;45.10;95219.59;6299196;22;20168;-78
2023/03/30 09:44:26;;;;;;;5.17;3.27;;;;;;;12.76;45.12;95237.34;6299637;22;20553;-78
2023/03/30 09:46:59;;;;;;;10.03;3.83;;;;;;;12.43;45.30;95234.28;6298638;22;20160;-77
2023/03/30 09:49:28;;;;;;;7.97;3.20;;;;;;;12.39;44.80;95233.91;6301227;22;20190;-79
2023/03/30 09:52:01;;;;;;;10.07;3.30;;;;;;;12.72;44.93;95227.59;6299649;22;20172;-78
2023/03/30 09:54:35;;;;;;;7.00;2.90;;;;;;;12.65;43.95;95234.66;6299256;22;20156;-78
2023/03/30 09:57:02;;;;;;;4.43;3.20;;;;;;;12.66;44.58;95228.44;6298636;22;20156;-77
2023/03/30 09:59:32;;;;;;;8.93;4.00;;;;;;;12.73;44.46;95232.56;6296894;22;20545;-78
2023/03/30 10:02:29;;;;;;;6.33;3.37;;;;;;;12.66;44.34;95223.22;6300235;22;20168;-79
2023/03/30 10:05:02;;;;;;;8.07;4.27;;;;;;;12.69;44.72;95231.41;6230079;22;20168;-79
2023/03/30 10:07:32;;;;;;;7.37;3.77;;;;;;;12.56;44.53;95225.53;6299425;22;20239;-77
2023/03/30 10:10:02;;;;;;;10.57;4.10;;;;;;;12.53;44.50;95211.91;6298023;22;20149;-77
2023/03/30 10:12:30;;;;;;;6.37;3.83;;;;;;;12.73;44.47;95227.34;6298182;22;20615;-77
2023/03/30 10:15:03;;;;;;;6.50;3.50;;;;;;;12.69;44.66;95226.22;6300825;22;20600;-78
2023/03/30 10:17:30;;;;;;;4.67;2.90;;;;;;;12.62;44.56;95212.41;6298120;22;20200;-77
2023/03/30 10:20:33;;;;;;;4.13;2.90;;;;;;;12.48;45.13;95211.78;6298005;22;20224;-77
2023/03/30 10:23:03;;;;;;;4.63;2.97;;;;;;;12.67;45.02;95202.13;6298886;22;20156;-77
2023/03/30 10:25:33;;;;;;;5.37;3.30;;;;;;;12.62;44.63;95209.00;6298791;22;20160;-78
2023/03/30 10:28:03;;;;;;;5.43;3.40;;;;;;;12.55;44.85;95198.66;6299128;22;20183;-79
2023/03/30 10:30:33;;;;;;;5.60;3.23;;;;;;;12.79;43.96;95191.78;6299377;22;20501;-79
2023/03/30 10:33:02;;;;;;;7.17;4.00;;;;;;;12.87;44.07;95187.06;6297375;22;20168;-79
2023/03/30 10:35:34;;;;;;;6.23;3.83;;;;;;;12.70;44.47;95190.50;6298114;22;20168;-76
2023/03/30 10:38:04;;;;;;;7.37;3.10;;;;;;;12.47;44.81;95196.31;6298268;22;20262;-78
2023/03/30 10:40:35;;;;;;;6.63;3.60;;;;;;;12.57;44.22;95193.22;6299038;22;20250;-77
2023/03/30 10:43:03;;;;;;;6.43;3.30;;;;;;;12.65;44.39;95190.31;6299859;22;20156;-77
2023/03/30 10:45:37;;;;;;;6.90;3.47;;;;;;;12.71;44.98;95194.69;6297055;22;20229;-78
2023/03/30 10:48:22;;;;;;;7.27;4.30;;;;;;;12.70;44.20;95191.25;6297806;22;20153;-79
2023/03/30 10:50:56;;;;;;;7.60;4.20;;;;;;;12.62;44.45;95195.97;6297782;22;20160;-78
2023/03/30 10:53:33;;;;;;;10.93;4.10;;;;;;;12.46;44.78;95185.13;6298854;22;20287;-77
2023/03/30 10:56:11;;;;;;;7.20;3.80;;;;;;;12.44;45.04;95178.50;6300009;22;20218;-78
2023/03/30 10:58:56;;;;;;;5.47;3.43;;;;;;;12.42;44.66;95170.91;6297591;22;20180;-78
2023/03/30 11:01:36;;;;;;;6.83;3.40;;;;;;;12.55;44.39;95167.38;6297367;22;20156;-77
2023/03/30 11:04:10;;;;;;;5.10;3.13;;;;;;;12.92;43.58;95171.56;6297345;22;20156;-77
2023/03/30 11:06:41;;;;;;;7.17;3.07;;;;;;;13.12;43.40;95157.50;6297441;22;20236;-77
2023/03/30 11:09:14;;;;;;;10.93;3.90;;;;;;;13.48;42.73;95162.59;6298663;22;20503;-78
2023/03/30 11:11:48;;;;;;;4.70;3.07;;;;;;;13.61;41.99;95151.97;6299557;22;20156;-78
2023/03/30 11:14:23;;;;;;;4.60;3.40;;;;;;;13.93;41.24;95166.34;6296871;22;20191;-79
2023/03/30 11:16:56;;;;;;;4.23;2.77;;;;;;;14.21;40.57;95153.41;6297340;22;20191;-80
2023/03/30 11:19:33;;;;;;;3.43;2.80;;;;;;;14.42;38.97;95154.69;6298801;22;20187;-81
2023/03/30 11:22:07;;;;;;;5.57;3.43;;;;;;;14.15;40.60;95150.91;6298650;22;20160;-79
2023/03/30 11:24:34;;;;;;;4.47;3.17;;;;;;;13.91;40.72;95149.31;6299127;22;20160;-79
2023/03/30 11:27:09;;;;;;;7.23;3.40;;;;;;;13.63;41.14;95145.50;6297263;22;20175;-79
2023/03/30 11:29:43;;;;;;;6.33;2.90;;;;;;;13.44;41.66;95136.16;6295983;22;20159;-79
2023/03/30 11:32:27;;;;;;;4.40;3.00;;;;;;;13.35;41.51;95128.88;6296193;22;20156;-79
2023/03/30 11:35:04;;;;;;;4.80;2.90;;;;;;;13.35;41.66;95115.81;6297706;22;20179;-78
2023/03/30 11:37:38;;;;;;;6.03;3.37;;;;;;;13.33;41.52;95117.84;6298029;22;20583;-78
2023/03/30 11:40:16;;;;;;;3.70;2.60;;;;;;;13.49;41.47;95114.59;6298096;22;20615;-78
2023/03/30 11:42:43;;;;;;;5.30;3.53;;;;;;;13.61;41.86;95111.00;6297378;22;20148;-78
2023/03/30 11:45:22;;;;;;;6.60;3.50;;;;;;;13.83;41.30;95110.44;6296777;22;20251;-76
2023/03/30 11:48:11;;;;;;;7.17;4.10;;;;;;;14.61;39.95;95108.22;6297708;22;20163;-78
2023/03/30 11:50:54;;;;;;;6.70;3.80;;;;;;;15.60;38.79;95112.97;6297213;22;20164;-78
2023/03/30 11:53:27;;;;;;;4.87;3.17;;;;;;;16.20;36.51;95112.31;6296850;22;20841;-77